sensor_id;sensor_type;location;lat;lon;timestamp;temperature;humidity
66522;SHT31;53349;53.538;8.584;2023-04-24T00:01:10;12.46;77.73
66522;SHT31;53349;53.538;8.584;2023-04-24T00:03:36;12.42;77.51
66522;SHT31;53349;53.538;8.584;2023-04-24T00:06:01;12.42;77.30
66522;SHT31;53349;53.538;8.584;2023-04-24T00:08:27;12.42;77.39
66522;SHT31;53349;53.538;8.584;2023-04-24T00:10:52;12.37;77.42
66522;SHT31;53349;53.538;8.584;2023-04-24T00:13:18;12.37;77.02
66522;SHT31;53349;53.538;8.584;2023-04-24T00:15:43;12.37;76.97
66522;SHT31;53349;53.538;8.584;2023-04-24T00:18:09;12.36;76.71
66522;SHT31;53349;53.538;8.584;2023-04-24T00:20:34;12.42;76.80
66522;SHT31;53349;53.538;8.584;2023-04-24T00:22:59;12.32;76.76
66522;SHT31;53349;53.538;8.584;2023-04-24T00:25:25;12.36;77.01
66522;SHT31;53349;53.538;8.584;2023-04-24T00:27:50;12.35;76.91
66522;SHT31;53349;53.538;8.584;2023-04-24T00:30:16;12.32;76.90
66522;SHT31;53349;53.538;8.584;2023-04-24T00:32:42;12.35;76.81
66522;SHT31;53349;53.538;8.584;2023-04-24T00:35:08;12.35;76.81
66522;SHT31;53349;53.538;8.584;2023-04-24T00:37:34;12.37;76.83
66522;SHT31;53349;53.538;8.584;2023-04-24T00:40:00;12.33;76.97
66522;SHT31;53349;53.538;8.584;2023-04-24T00:42:25;12.39;76.88
66522;SHT31;53349;53.538;8.584;2023-04-24T00:44:51;12.37;76.91
66522;SHT31;53349;53.538;8.584;2023-04-24T00:47:18;12.40;76.77
66522;SHT31;53349;53.538;8.584;2023-04-24T00:49:44;12.39;76.92
66522;SHT31;53349;53.538;8.584;2023-04-24T00:52:11;12.39;76.80
66522;SHT31;53349;53.538;8.584;2023-04-24T00:54:36;12.33;76.65
66522;SHT31;53349;53.538;8.584;2023-04-24T00:57:05;12.35;76.65
66522;SHT31;53349;53.538;8.584;2023-04-24T00:59:31;12.36;76.62
66522;SHT31;53349;53.538;8.584;2023-04-24T01:01:57;12.32;76.78
66522;SHT31;53349;53.538;8.584;2023-04-24T01:04:24;12.32;76.59
66522;SHT31;53349;53.538;8.584;2023-04-24T01:06:50;12.29;76.39
66522;SHT31;53349;53.538;8.584;2023-04-24T01:09:16;12.29;76.56
66522;SHT31;53349;53.538;8.584;2023-04-24T01:11:42;12.24;76.39
66522;SHT31;53349;53.538;8.584;2023-04-24T01:14:08;12.25;76.04
66522;SHT31;53349;53.538;8.584;2023-04-24T01:16:33;12.28;75.72
66522;SHT31;53349;53.538;8.584;2023-04-24T01:18:59;12.30;75.34
66522;SHT31;53349;53.538;8.584;2023-04-24T01:21:26;12.25;74.77
66522;SHT31;53349;53.538;8.584;2023-04-24T01:23:52;12.28;74.89
66522;SHT31;53349;53.538;8.584;2023-04-24T01:26:17;12.29;74.89
66522;SHT31;53349;53.538;8.584;2023-04-24T01:28:43;12.28;74.55
66522;SHT31;53349;53.538;8.584;2023-04-24T01:31:08;12.35;74.39
66522;SHT31;53349;53.538;8.584;2023-04-24T01:33:33;12.35;73.95
66522;SHT31;53349;53.538;8.584;2023-04-24T01:35:59;12.28;72.96
66522;SHT31;53349;53.538;8.584;2023-04-24T01:38:24;12.29;72.37
66522;SHT31;53349;53.538;8.584;2023-04-24T01:40:51;12.26;71.97
66522;SHT31;53349;53.538;8.584;2023-04-24T01:43:16;12.24;71.88
66522;SHT31;53349;53.538;8.584;2023-04-24T01:45:42;12.16;72.11
66522;SHT31;53349;53.538;8.584;2023-04-24T01:48:07;12.15;71.64
66522;SHT31;53349;53.538;8.584;2023-04-24T01:50:32;12.18;71.45
66522;SHT31;53349;53.538;8.584;2023-04-24T01:52:58;12.16;71.30
66522;SHT31;53349;53.538;8.584;2023-04-24T01:55:23;12.16;71.00
66522;SHT31;53349;53.538;8.584;2023-04-24T01:57:49;12.09;70.62
66522;SHT31;53349;53.538;8.584;2023-04-24T02:00:15;12.14;71.09
66522;SHT31;53349;53.538;8.584;2023-04-24T02:02:40;12.11;71.57
66522;SHT31;53349;53.538;8.584;2023-04-24T02:05:06;12.05;71.74
66522;SHT31;53349;53.538;8.584;2023-04-24T02:07:32;12.05;71.65
66522;SHT31;53349;53.538;8.584;2023-04-24T02:10:00;12.04;71.23
66522;SHT31;53349;53.538;8.584;2023-04-24T02:12:25;12.01;71.06
66522;SHT31;53349;53.538;8.584;2023-04-24T02:14:51;11.98;71.08
66522;SHT31;53349;53.538;8.584;2023-04-24T02:17:17;11.99;71.24
66522;SHT31;53349;53.538;8.584;2023-04-24T02:19:44;11.98;71.27
66522;SHT31;53349;53.538;8.584;2023-04-24T02:22:11;11.91;71.33
66522;SHT31;53349;53.538;8.584;2023-04-24T02:24:37;11.94;71.08
66522;SHT31;53349;53.538;8.584;2023-04-24T02:27:04;11.88;71.05
66522;SHT31;53349;53.538;8.584;2023-04-24T02:29:30;11.91;71.18
66522;SHT31;53349;53.538;8.584;2023-04-24T02:31:56;11.89;71.15
66522;SHT31;53349;53.538;8.584;2023-04-24T02:34:21;11.89;71.30
66522;SHT31;53349;53.538;8.584;2023-04-24T02:36:47;11.88;71.41
66522;SHT31;53349;53.538;8.584;2023-04-24T02:39:12;11.91;71.53
66522;SHT31;53349;53.538;8.584;2023-04-24T02:41:37;11.91;71.54
66522;SHT31;53349;53.538;8.584;2023-04-24T02:44:04;11.89;71.76
66522;SHT31;53349;53.538;8.584;2023-04-24T02:46:29;11.89;71.98
66522;SHT31;53349;53.538;8.584;2023-04-24T02:48:56;11.88;72.56
66522;SHT31;53349;53.538;8.584;2023-04-24T02:51:21;11.94;72.81
66522;SHT31;53349;53.538;8.584;2023-04-24T02:53:47;11.91;73.26
66522;SHT31;53349;53.538;8.584;2023-04-24T02:56:13;11.84;74.30
66522;SHT31;53349;53.538;8.584;2023-04-24T02:58:42;11.77;75.11
66522;SHT31;53349;53.538;8.584;2023-04-24T03:01:07;11.58;75.85
66522;SHT31;53349;53.538;8.584;2023-04-24T03:03:35;11.51;76.05
66522;SHT31;53349;53.538;8.584;2023-04-24T03:06:00;11.48;76.07
66522;SHT31;53349;53.538;8.584;2023-04-24T03:08:27;11.47;76.24
66522;SHT31;53349;53.538;8.584;2023-04-24T03:10:55;11.51;76.44
66522;SHT31;53349;53.538;8.584;2023-04-24T03:13:22;11.50;76.57
66522;SHT31;53349;53.538;8.584;2023-04-24T03:15:49;11.44;76.64
66522;SHT31;53349;53.538;8.584;2023-04-24T03:18:16;11.37;76.67
66522;SHT31;53349;53.538;8.584;2023-04-24T03:20:42;11.37;76.66
66522;SHT31;53349;53.538;8.584;2023-04-24T03:23:07;11.34;76.69
66522;SHT31;53349;53.538;8.584;2023-04-24T03:25:33;11.33;76.61
66522;SHT31;53349;53.538;8.584;2023-04-24T03:27:58;11.36;76.72
66522;SHT31;53349;53.538;8.584;2023-04-24T03:30:23;11.30;76.16
66522;SHT31;53349;53.538;8.584;2023-04-24T03:32:50;11.33;75.68
66522;SHT31;53349;53.538;8.584;2023-04-24T03:35:15;11.38;75.37
66522;SHT31;53349;53.538;8.584;2023-04-24T03:37:41;11.46;75.16
66522;SHT31;53349;53.538;8.584;2023-04-24T03:40:07;11.50;74.62
66522;SHT31;53349;53.538;8.584;2023-04-24T03:42:32;11.50;74.60
66522;SHT31;53349;53.538;8.584;2023-04-24T03:44:58;11.48;74.49
66522;SHT31;53349;53.538;8.584;2023-04-24T03:47:23;11.47;74.41
66522;SHT31;53349;53.538;8.584;2023-04-24T03:49:48;11.50;74.53
66522;SHT31;53349;53.538;8.584;2023-04-24T03:52:14;11.44;74.52
66522;SHT31;53349;53.538;8.584;2023-04-24T03:54:39;11.43;74.54
66522;SHT31;53349;53.538;8.584;2023-04-24T03:57:06;11.46;74.18
66522;SHT31;53349;53.538;8.584;2023-04-24T03:59:31;11.44;73.79
66522;SHT31;53349;53.538;8.584;2023-04-24T04:01:57;11.47;74.00
66522;SHT31;53349;53.538;8.584;2023-04-24T04:04:22;11.43;74.08
66522;SHT31;53349;53.538;8.584;2023-04-24T04:06:48;11.46;74.23
66522;SHT31;53349;53.538;8.584;2023-04-24T04:09:13;11.43;74.22
66522;SHT31;53349;53.538;8.584;2023-04-24T04:11:39;11.37;74.32
66522;SHT31;53349;53.538;8.584;2023-04-24T04:14:04;11.33;74.20
66522;SHT31;53349;53.538;8.584;2023-04-24T04:16:29;11.31;74.13
66522;SHT31;53349;53.538;8.584;2023-04-24T04:18:55;11.38;74.03
66522;SHT31;53349;53.538;8.584;2023-04-24T04:21:21;11.38;73.77
66522;SHT31;53349;53.538;8.584;2023-04-24T04:23:46;11.31;73.99
66522;SHT31;53349;53.538;8.584;2023-04-24T04:26:12;11.28;74.20
66522;SHT31;53349;53.538;8.584;2023-04-24T04:28:37;11.34;74.27
66522;SHT31;53349;53.538;8.584;2023-04-24T04:31:02;11.34;74.12
66522;SHT31;53349;53.538;8.584;2023-04-24T04:33:28;11.34;74.03
66522;SHT31;53349;53.538;8.584;2023-04-24T04:36:05;11.33;73.69
66522;SHT31;53349;53.538;8.584;2023-04-24T04:38:30;11.40;73.75
66522;SHT31;53349;53.538;8.584;2023-04-24T04:40:56;11.38;73.74
66522;SHT31;53349;53.538;8.584;2023-04-24T04:43:21;11.33;73.78
66522;SHT31;53349;53.538;8.584;2023-04-24T04:45:47;11.36;74.31
66522;SHT31;53349;53.538;8.584;2023-04-24T04:48:12;11.31;75.10
66522;SHT31;53349;53.538;8.584;2023-04-24T04:50:38;11.30;75.26
66522;SHT31;53349;53.538;8.584;2023-04-24T04:53:04;11.17;75.95
66522;SHT31;53349;53.538;8.584;2023-04-24T04:55:29;11.17;76.65
66522;SHT31;53349;53.538;8.584;2023-04-24T04:57:55;11.06;77.08
66522;SHT31;53349;53.538;8.584;2023-04-24T05:00:20;11.03;76.96
66522;SHT31;53349;53.538;8.584;2023-04-24T05:02:46;11.05;77.00
66522;SHT31;53349;53.538;8.584;2023-04-24T05:05:14;11.02;76.64
66522;SHT31;53349;53.538;8.584;2023-04-24T05:07:39;11.07;76.56
66522;SHT31;53349;53.538;8.584;2023-04-24T05:10:08;11.13;75.92
66522;SHT31;53349;53.538;8.584;2023-04-24T05:12:35;11.16;75.64
66522;SHT31;53349;53.538;8.584;2023-04-24T05:15:10;11.17;75.34
66522;SHT31;53349;53.538;8.584;2023-04-24T05:17:36;11.22;75.19
66522;SHT31;53349;53.538;8.584;2023-04-24T05:20:03;11.24;74.94
66522;SHT31;53349;53.538;8.584;2023-04-24T05:22:31;11.30;74.80
66522;SHT31;53349;53.538;8.584;2023-04-24T05:24:57;11.34;74.53
66522;SHT31;53349;53.538;8.584;2023-04-24T05:27:24;11.30;74.23
66522;SHT31;53349;53.538;8.584;2023-04-24T05:29:49;11.38;74.38
66522;SHT31;53349;53.538;8.584;2023-04-24T05:32:15;11.41;74.35
66522;SHT31;53349;53.538;8.584;2023-04-24T05:34:42;11.41;74.16
66522;SHT31;53349;53.538;8.584;2023-04-24T05:37:07;11.41;74.05
66522;SHT31;53349;53.538;8.584;2023-04-24T05:39:33;11.43;73.99
66522;SHT31;53349;53.538;8.584;2023-04-24T05:41:58;11.40;74.06
66522;SHT31;53349;53.538;8.584;2023-04-24T05:44:24;11.43;73.90
66522;SHT31;53349;53.538;8.584;2023-04-24T05:46:52;11.44;74.08
66522;SHT31;53349;53.538;8.584;2023-04-24T05:49:18;11.37;74.15
66522;SHT31;53349;53.538;8.584;2023-04-24T05:51:43;11.34;74.23
66522;SHT31;53349;53.538;8.584;2023-04-24T05:54:09;11.38;74.48
66522;SHT31;53349;53.538;8.584;2023-04-24T05:56:34;11.34;74.26
66522;SHT31;53349;53.538;8.584;2023-04-24T05:59:00;11.27;74.36
66522;SHT31;53349;53.538;8.584;2023-04-24T06:01:26;11.31;74.47
66522;SHT31;53349;53.538;8.584;2023-04-24T06:03:52;11.31;74.18
66522;SHT31;53349;53.538;8.584;2023-04-24T06:06:17;11.31;74.20
66522;SHT31;53349;53.538;8.584;2023-04-24T06:08:44;11.34;74.14
66522;SHT31;53349;53.538;8.584;2023-04-24T06:11:11;11.40;74.25
66522;SHT31;53349;53.538;8.584;2023-04-24T06:13:37;11.40;74.16
66522;SHT31;53349;53.538;8.584;2023-04-24T06:16:02;11.40;74.03
66522;SHT31;53349;53.538;8.584;2023-04-24T06:18:28;11.47;73.89
66522;SHT31;53349;53.538;8.584;2023-04-24T06:20:53;11.46;73.93
66522;SHT31;53349;53.538;8.584;2023-04-24T06:23:19;11.50;73.81
66522;SHT31;53349;53.538;8.584;2023-04-24T06:25:48;11.47;73.68
66522;SHT31;53349;53.538;8.584;2023-04-24T06:28:15;11.46;73.96
66522;SHT31;53349;53.538;8.584;2023-04-24T06:30:44;11.46;74.00
66522;SHT31;53349;53.538;8.584;2023-04-24T06:33:10;11.48;73.84
66522;SHT31;53349;53.538;8.584;2023-04-24T06:35:36;11.48;73.79
66522;SHT31;53349;53.538;8.584;2023-04-24T06:38:02;11.53;73.58
66522;SHT31;53349;53.538;8.584;2023-04-24T06:40:30;11.54;73.61
66522;SHT31;53349;53.538;8.584;2023-04-24T06:42:55;11.58;73.62
66522;SHT31;53349;53.538;8.584;2023-04-24T06:45:21;11.57;73.31
66522;SHT31;53349;53.538;8.584;2023-04-24T06:47:46;11.60;73.40
66522;SHT31;53349;53.538;8.584;2023-04-24T06:50:12;11.61;73.33
66522;SHT31;53349;53.538;8.584;2023-04-24T06:52:38;11.61;73.55
66522;SHT31;53349;53.538;8.584;2023-04-24T06:55:04;11.65;73.24
66522;SHT31;53349;53.538;8.584;2023-04-24T06:57:31;11.65;73.22
66522;SHT31;53349;53.538;8.584;2023-04-24T06:59:57;11.71;73.19
66522;SHT31;53349;53.538;8.584;2023-04-24T07:02:22;11.74;72.75
66522;SHT31;53349;53.538;8.584;2023-04-24T07:04:48;11.79;72.66
66522;SHT31;53349;53.538;8.584;2023-04-24T07:07:14;11.81;72.58
66522;SHT31;53349;53.538;8.584;2023-04-24T07:09:39;11.79;72.49
66522;SHT31;53349;53.538;8.584;2023-04-24T07:12:05;11.85;72.52
66522;SHT31;53349;53.538;8.584;2023-04-24T07:14:31;11.84;72.66
66522;SHT31;53349;53.538;8.584;2023-04-24T07:16:56;11.85;72.38
66522;SHT31;53349;53.538;8.584;2023-04-24T07:19:21;11.92;72.24
66522;SHT31;53349;53.538;8.584;2023-04-24T07:21:47;11.92;72.32
66522;SHT31;53349;53.538;8.584;2023-04-24T07:24:15;11.96;72.14
66522;SHT31;53349;53.538;8.584;2023-04-24T07:26:41;11.94;71.92
66522;SHT31;53349;53.538;8.584;2023-04-24T07:29:07;11.91;71.83
66522;SHT31;53349;53.538;8.584;2023-04-24T07:31:33;11.88;71.90
66522;SHT31;53349;53.538;8.584;2023-04-24T07:34:01;11.87;71.79
66522;SHT31;53349;53.538;8.584;2023-04-24T07:36:29;11.84;71.72
66522;SHT31;53349;53.538;8.584;2023-04-24T07:51:51;11.96;71.69
66522;SHT31;53349;53.538;8.584;2023-04-24T07:54:18;12.06;71.81
66522;SHT31;53349;53.538;8.584;2023-04-24T07:56:43;12.09;71.27
66522;SHT31;53349;53.538;8.584;2023-04-24T07:59:10;12.09;70.68
66522;SHT31;53349;53.538;8.584;2023-04-24T08:01:35;12.14;71.30
66522;SHT31;53349;53.538;8.584;2023-04-24T08:04:02;12.14;71.06
66522;SHT31;53349;53.538;8.584;2023-04-24T08:06:29;12.25;70.98
66522;SHT31;53349;53.538;8.584;2023-04-24T08:08:54;12.35;70.06
66522;SHT31;53349;53.538;8.584;2023-04-24T08:11:20;12.43;70.31
66522;SHT31;53349;53.538;8.584;2023-04-24T08:13:45;12.47;69.74
66522;SHT31;53349;53.538;8.584;2023-04-24T08:16:12;12.42;69.22
66522;SHT31;53349;53.538;8.584;2023-04-24T08:18:38;12.39;69.89
66522;SHT31;53349;53.538;8.584;2023-04-24T08:21:04;12.42;69.73
66522;SHT31;53349;53.538;8.584;2023-04-24T08:23:31;12.37;69.22
66522;SHT31;53349;53.538;8.584;2023-04-24T08:25:56;12.32;69.84
66522;SHT31;53349;53.538;8.584;2023-04-24T08:28:23;12.36;70.22
66522;SHT31;53349;53.538;8.584;2023-04-24T08:30:48;12.18;70.24
66522;SHT31;53349;53.538;8.584;2023-04-24T08:33:14;12.09;70.48
66522;SHT31;53349;53.538;8.584;2023-04-24T08:35:39;12.05;70.45
66522;SHT31;53349;53.538;8.584;2023-04-24T08:38:06;12.04;70.67
66522;SHT31;53349;53.538;8.584;2023-04-24T08:40:34;11.94;70.68
66522;SHT31;53349;53.538;8.584;2023-04-24T08:42:59;11.96;70.98
66522;SHT31;53349;53.538;8.584;2023-04-24T08:45:27;11.92;70.21
66522;SHT31;53349;53.538;8.584;2023-04-24T08:47:53;11.87;69.79
66522;SHT31;53349;53.538;8.584;2023-04-24T08:50:18;11.85;69.62
66522;SHT31;53349;53.538;8.584;2023-04-24T08:52:44;11.85;69.64
66522;SHT31;53349;53.538;8.584;2023-04-24T08:55:11;11.92;69.97
66522;SHT31;53349;53.538;8.584;2023-04-24T08:57:37;11.95;69.81
66522;SHT31;53349;53.538;8.584;2023-04-24T09:00:02;11.99;69.75
66522;SHT31;53349;53.538;8.584;2023-04-24T09:02:28;12.01;69.58
66522;SHT31;53349;53.538;8.584;2023-04-24T09:04:55;12.06;69.70
66522;SHT31;53349;53.538;8.584;2023-04-24T09:07:26;12.06;69.84
66522;SHT31;53349;53.538;8.584;2023-04-24T09:09:55;12.12;69.62
66522;SHT31;53349;53.538;8.584;2023-04-24T09:12:21;12.16;69.51
66522;SHT31;53349;53.538;8.584;2023-04-24T09:14:48;12.16;69.42
66522;SHT31;53349;53.538;8.584;2023-04-24T09:17:13;12.14;69.05
66522;SHT31;53349;53.538;8.584;2023-04-24T09:19:40;12.12;69.11
66522;SHT31;53349;53.538;8.584;2023-04-24T09:22:06;12.08;69.12
66522;SHT31;53349;53.538;8.584;2023-04-24T09:24:31;12.11;69.05
66522;SHT31;53349;53.538;8.584;2023-04-24T09:26:58;12.11;69.18
66522;SHT31;53349;53.538;8.584;2023-04-24T09:29:24;12.11;69.22
66522;SHT31;53349;53.538;8.584;2023-04-24T09:31:50;12.09;68.96
66522;SHT31;53349;53.538;8.584;2023-04-24T09:34:22;12.09;68.89
66522;SHT31;53349;53.538;8.584;2023-04-24T09:36:47;12.11;69.01
66522;SHT31;53349;53.538;8.584;2023-04-24T09:39:14;12.11;69.13
66522;SHT31;53349;53.538;8.584;2023-04-24T09:41:51;12.12;69.21
66522;SHT31;53349;53.538;8.584;2023-04-24T09:44:20;12.12;69.10
66522;SHT31;53349;53.538;8.584;2023-04-24T09:46:50;12.14;69.40
66522;SHT31;53349;53.538;8.584;2023-04-24T09:49:22;12.16;69.66
66522;SHT31;53349;53.538;8.584;2023-04-24T09:51:47;12.19;69.54
66522;SHT31;53349;53.538;8.584;2023-04-24T09:54:15;12.16;69.04
66522;SHT31;53349;53.538;8.584;2023-04-24T09:56:45;12.15;69.05
66522;SHT31;53349;53.538;8.584;2023-04-24T09:59:12;12.08;68.95
66522;SHT31;53349;53.538;8.584;2023-04-24T10:01:37;12.08;69.06
66522;SHT31;53349;53.538;8.584;2023-04-24T10:04:03;12.05;69.22
66522;SHT31;53349;53.538;8.584;2023-04-24T10:06:36;11.92;69.32
66522;SHT31;53349;53.538;8.584;2023-04-24T10:09:02;11.96;69.54
66522;SHT31;53349;53.538;8.584;2023-04-24T10:11:28;11.95;69.29
66522;SHT31;53349;53.538;8.584;2023-04-24T10:13:53;11.82;69.72
66522;SHT31;53349;53.538;8.584;2023-04-24T10:16:21;11.81;69.89
66522;SHT31;53349;53.538;8.584;2023-04-24T10:18:48;11.78;70.18
66522;SHT31;53349;53.538;8.584;2023-04-24T10:21:14;11.81;70.34
66522;SHT31;53349;53.538;8.584;2023-04-24T10:23:41;11.75;70.36
66522;SHT31;53349;53.538;8.584;2023-04-24T10:26:09;11.75;70.53
66522;SHT31;53349;53.538;8.584;2023-04-24T10:28:36;11.73;70.89
66522;SHT31;53349;53.538;8.584;2023-04-24T10:31:02;11.77;71.55
66522;SHT31;53349;53.538;8.584;2023-04-24T10:33:29;11.73;72.01
66522;SHT31;53349;53.538;8.584;2023-04-24T10:35:56;11.73;72.02
66522;SHT31;53349;53.538;8.584;2023-04-24T10:38:24;11.71;72.67
66522;SHT31;53349;53.538;8.584;2023-04-24T10:40:50;11.64;73.50
66522;SHT31;53349;53.538;8.584;2023-04-24T10:43:17;11.48;74.60
66522;SHT31;53349;53.538;8.584;2023-04-24T10:46:00;11.46;75.47
66522;SHT31;53349;53.538;8.584;2023-04-24T10:48:29;11.40;76.08
66522;SHT31;53349;53.538;8.584;2023-04-24T10:50:54;11.40;76.00
66522;SHT31;53349;53.538;8.584;2023-04-24T10:53:28;11.34;76.11
66522;SHT31;53349;53.538;8.584;2023-04-24T10:56:07;11.31;76.20
66522;SHT31;53349;53.538;8.584;2023-04-24T11:01:03;11.26;76.51
66522;SHT31;53349;53.538;8.584;2023-04-24T11:03:30;11.33;76.99
66522;SHT31;53349;53.538;8.584;2023-04-24T11:11:00;11.36;77.31
66522;SHT31;53349;53.538;8.584;2023-04-24T11:14:00;11.37;77.45
66522;SHT31;53349;53.538;8.584;2023-04-24T11:19:18;11.28;77.69
66522;SHT31;53349;53.538;8.584;2023-04-24T11:24:38;11.26;77.90
66522;SHT31;53349;53.538;8.584;2023-04-24T11:29:49;11.26;77.65
66522;SHT31;53349;53.538;8.584;2023-04-24T11:34:55;11.12;78.66
66522;SHT31;53349;53.538;8.584;2023-04-24T11:37:22;11.03;78.05
66522;SHT31;53349;53.538;8.584;2023-04-24T11:39:51;11.02;78.21
66522;SHT31;53349;53.538;8.584;2023-04-24T11:42:20;10.97;78.71
66522;SHT31;53349;53.538;8.584;2023-04-24T11:44:46;10.91;79.01
66522;SHT31;53349;53.538;8.584;2023-04-24T11:47:11;10.91;79.48
66522;SHT31;53349;53.538;8.584;2023-04-24T11:49:37;10.93;80.01
66522;SHT31;53349;53.538;8.584;2023-04-24T11:52:04;10.89;80.03
66522;SHT31;53349;53.538;8.584;2023-04-24T11:54:30;10.83;80.30
66522;SHT31;53349;53.538;8.584;2023-04-24T11:56:56;10.85;80.30
66522;SHT31;53349;53.538;8.584;2023-04-24T11:59:21;10.77;80.45
66522;SHT31;53349;53.538;8.584;2023-04-24T12:01:48;10.71;80.90
66522;SHT31;53349;53.538;8.584;2023-04-24T12:04:14;10.68;80.99
66522;SHT31;53349;53.538;8.584;2023-04-24T12:07:03;10.61;82.06
66522;SHT31;53349;53.538;8.584;2023-04-24T12:12:38;10.56;82.62
66522;SHT31;53349;53.538;8.584;2023-04-24T12:15:29;10.59;82.89
66522;SHT31;53349;53.538;8.584;2023-04-24T12:17:57;10.51;82.64
66522;SHT31;53349;53.538;8.584;2023-04-24T12:20:31;10.49;83.09
66522;SHT31;53349;53.538;8.584;2023-04-24T12:22:58;10.51;83.06
66522;SHT31;53349;53.538;8.584;2023-04-24T12:25:29;10.52;83.27
66522;SHT31;53349;53.538;8.584;2023-04-24T12:28:15;10.48;83.34
66522;SHT31;53349;53.538;8.584;2023-04-24T12:30:46;10.44;83.31
66522;SHT31;53349;53.538;8.584;2023-04-24T12:33:12;10.45;83.61
66522;SHT31;53349;53.538;8.584;2023-04-24T12:35:40;10.46;83.78
66522;SHT31;53349;53.538;8.584;2023-04-24T12:38:16;10.45;83.76
66522;SHT31;53349;53.538;8.584;2023-04-24T12:40:42;10.48;83.73
66522;SHT31;53349;53.538;8.584;2023-04-24T12:43:18;10.51;83.62
66522;SHT31;53349;53.538;8.584;2023-04-24T12:45:44;10.48;83.82
66522;SHT31;53349;53.538;8.584;2023-04-24T12:48:10;10.54;83.83
66522;SHT31;53349;53.538;8.584;2023-04-24T12:50:35;10.54;83.78
66522;SHT31;53349;53.538;8.584;2023-04-24T12:53:00;10.51;83.56
66522;SHT31;53349;53.538;8.584;2023-04-24T12:55:26;10.55;83.78
66522;SHT31;53349;53.538;8.584;2023-04-24T12:58:12;10.55;83.82
66522;SHT31;53349;53.538;8.584;2023-04-24T13:00:38;10.54;83.72
66522;SHT31;53349;53.538;8.584;2023-04-24T13:03:05;10.48;83.67
66522;SHT31;53349;53.538;8.584;2023-04-24T13:05:30;10.48;83.69
66522;SHT31;53349;53.538;8.584;2023-04-24T13:07:57;10.48;83.62
66522;SHT31;53349;53.538;8.584;2023-04-24T13:10:23;10.40;83.09
66522;SHT31;53349;53.538;8.584;2023-04-24T13:12:49;10.35;83.41
66522;SHT31;53349;53.538;8.584;2023-04-24T13:15:14;10.28;83.18
66522;SHT31;53349;53.538;8.584;2023-04-24T13:17:39;10.22;83.03
66522;SHT31;53349;53.538;8.584;2023-04-24T13:20:05;10.14;82.86
66522;SHT31;53349;53.538;8.584;2023-04-24T13:22:31;10.04;83.12
66522;SHT31;53349;53.538;8.584;2023-04-24T13:24:56;10.04;83.12
66522;SHT31;53349;53.538;8.584;2023-04-24T13:27:21;10.00;82.90
66522;SHT31;53349;53.538;8.584;2023-04-24T13:29:47;9.94;83.10
66522;SHT31;53349;53.538;8.584;2023-04-24T13:32:12;9.93;83.17
66522;SHT31;53349;53.538;8.584;2023-04-24T13:34:39;9.87;83.13
66522;SHT31;53349;53.538;8.584;2023-04-24T13:37:05;9.84;83.19
66522;SHT31;53349;53.538;8.584;2023-04-24T13:39:30;9.80;82.87
66522;SHT31;53349;53.538;8.584;2023-04-24T13:41:57;9.69;81.99
66522;SHT31;53349;53.538;8.584;2023-04-24T13:44:23;9.65;82.73
66522;SHT31;53349;53.538;8.584;2023-04-24T13:46:50;9.60;82.54
66522;SHT31;53349;53.538;8.584;2023-04-24T13:49:15;9.55;82.78
66522;SHT31;53349;53.538;8.584;2023-04-24T13:51:42;9.59;83.34
66522;SHT31;53349;53.538;8.584;2023-04-24T13:54:07;9.60;83.50
66522;SHT31;53349;53.538;8.584;2023-04-24T13:56:33;9.62;83.59
66522;SHT31;53349;53.538;8.584;2023-04-24T13:58:58;9.63;83.53
66522;SHT31;53349;53.538;8.584;2023-04-24T14:01:24;9.60;83.53
66522;SHT31;53349;53.538;8.584;2023-04-24T14:03:50;9.60;83.45
66522;SHT31;53349;53.538;8.584;2023-04-24T14:06:15;9.56;83.43
66522;SHT31;53349;53.538;8.584;2023-04-24T14:08:41;9.55;83.52
66522;SHT31;53349;53.538;8.584;2023-04-24T14:11:07;9.55;83.55
66522;SHT31;53349;53.538;8.584;2023-04-24T14:13:32;9.52;83.38
66522;SHT31;53349;53.538;8.584;2023-04-24T14:15:58;9.50;83.37
66522;SHT31;53349;53.538;8.584;2023-04-24T14:18:23;9.47;83.54
66522;SHT31;53349;53.538;8.584;2023-04-24T14:20:49;9.47;83.70
66522;SHT31;53349;53.538;8.584;2023-04-24T14:23:14;9.47;83.70
66522;SHT31;53349;53.538;8.584;2023-04-24T14:25:40;9.46;83.82
66522;SHT31;53349;53.538;8.584;2023-04-24T14:28:06;9.46;83.83
66522;SHT31;53349;53.538;8.584;2023-04-24T14:30:31;9.46;83.75
66522;SHT31;53349;53.538;8.584;2023-04-24T14:32:57;9.39;83.72
66522;SHT31;53349;53.538;8.584;2023-04-24T14:35:22;9.42;83.72
66522;SHT31;53349;53.538;8.584;2023-04-24T14:37:48;9.39;83.50
66522;SHT31;53349;53.538;8.584;2023-04-24T14:40:13;9.38;83.55
66522;SHT31;53349;53.538;8.584;2023-04-24T14:42:38;9.38;83.51
66522;SHT31;53349;53.538;8.584;2023-04-24T14:45:04;9.35;83.43
66522;SHT31;53349;53.538;8.584;2023-04-24T14:47:29;9.34;83.18
66522;SHT31;53349;53.538;8.584;2023-04-24T14:49:55;9.34;83.27
66522;SHT31;53349;53.538;8.584;2023-04-24T14:52:20;9.32;83.14
66522;SHT31;53349;53.538;8.584;2023-04-24T14:54:48;9.28;82.83
66522;SHT31;53349;53.538;8.584;2023-04-24T14:57:13;9.29;82.98
66522;SHT31;53349;53.538;8.584;2023-04-24T14:59:39;9.31;83.25
66522;SHT31;53349;53.538;8.584;2023-04-24T15:02:04;9.36;83.38
66522;SHT31;53349;53.538;8.584;2023-04-24T15:04:29;9.38;83.60
66522;SHT31;53349;53.538;8.584;2023-04-24T15:06:55;9.42;83.69
66522;SHT31;53349;53.538;8.584;2023-04-24T15:09:21;9.40;83.68
66522;SHT31;53349;53.538;8.584;2023-04-24T15:11:48;9.43;84.18
66522;SHT31;53349;53.538;8.584;2023-04-24T15:14:14;9.45;84.18
66522;SHT31;53349;53.538;8.584;2023-04-24T15:16:40;9.43;84.10
66522;SHT31;53349;53.538;8.584;2023-04-24T15:19:05;9.46;83.86
66522;SHT31;53349;53.538;8.584;2023-04-24T15:21:30;9.40;83.78
66522;SHT31;53349;53.538;8.584;2023-04-24T15:23:56;9.39;83.66
66522;SHT31;53349;53.538;8.584;2023-04-24T15:26:25;9.42;83.88
66522;SHT31;53349;53.538;8.584;2023-04-24T15:28:51;9.40;83.84
66522;SHT31;53349;53.538;8.584;2023-04-24T15:31:17;9.40;83.69
66522;SHT31;53349;53.538;8.584;2023-04-24T15:33:43;9.39;83.80
66522;SHT31;53349;53.538;8.584;2023-04-24T15:36:10;9.43;84.03
66522;SHT31;53349;53.538;8.584;2023-04-24T15:38:37;9.46;83.90
66522;SHT31;53349;53.538;8.584;2023-04-24T15:41:03;9.46;83.76
66522;SHT31;53349;53.538;8.584;2023-04-24T15:43:30;9.47;83.76
66522;SHT31;53349;53.538;8.584;2023-04-24T15:45:55;9.47;83.54
66522;SHT31;53349;53.538;8.584;2023-04-24T15:48:21;9.49;83.21
66522;SHT31;53349;53.538;8.584;2023-04-24T15:50:46;9.46;82.85
66522;SHT31;53349;53.538;8.584;2023-04-24T15:53:12;9.53;82.85
66522;SHT31;53349;53.538;8.584;2023-04-24T15:55:37;9.49;82.19
66522;SHT31;53349;53.538;8.584;2023-04-24T15:58:03;9.45;81.27
66522;SHT31;53349;53.538;8.584;2023-04-24T16:00:28;9.42;81.72
66522;SHT31;53349;53.538;8.584;2023-04-24T16:02:55;9.49;81.60